createdAt,value
2023-02-03T00:00:04.266Z,986.27
2023-02-03T00:01:04.179Z,986.30
2023-02-03T00:02:04.211Z,986.26
2023-02-03T00:03:04.068Z,986.30
2023-02-03T00:04:03.931Z,986.32
2023-02-03T00:05:03.851Z,986.33
2023-02-03T00:06:03.790Z,986.31
2023-02-03T00:07:03.680Z,986.33
2023-02-03T00:08:03.593Z,986.36
2023-02-03T00:09:03.512Z,986.39
2023-02-03T00:10:03.424Z,986.38
2023-02-03T00:11:03.337Z,986.39
2023-02-03T00:12:03.262Z,986.39
2023-02-03T00:13:03.176Z,986.40
2023-02-03T00:14:03.093Z,986.40
2023-02-03T00:15:03.022Z,986.45
2023-02-03T00:16:02.963Z,986.44
2023-02-03T00:17:02.841Z,986.47
2023-02-03T00:18:02.764Z,986.45
2023-02-03T00:19:02.672Z,986.43
2023-02-03T00:20:02.601Z,986.40
2023-02-03T00:21:02.507Z,986.43
2023-02-03T00:22:02.426Z,986.49
2023-02-03T00:23:02.334Z,986.40
2023-02-03T00:24:02.256Z,986.40
2023-02-03T00:25:02.167Z,986.43
2023-02-03T00:26:02.089Z,986.38
2023-02-03T00:27:01.997Z,986.44
2023-02-03T00:28:01.958Z,986.48
2023-02-03T00:29:01.841Z,986.39
2023-02-03T00:30:01.745Z,986.38
2023-02-03T00:31:01.673Z,986.42
2023-02-03T00:32:01.732Z,986.42
2023-02-03T00:33:01.499Z,986.44
2023-02-03T00:34:01.411Z,986.42
2023-02-03T00:35:01.328Z,986.45
2023-02-03T00:36:01.245Z,986.38
2023-02-03T00:37:01.160Z,986.43
2023-02-03T00:38:01.080Z,986.41
2023-02-03T00:39:00.991Z,986.42
2023-02-03T00:40:00.914Z,986.43
2023-02-03T00:41:00.821Z,986.45
2023-02-03T00:42:00.746Z,986.49
2023-02-03T00:43:00.659Z,986.35
2023-02-03T00:44:00.580Z,986.43
2023-02-03T00:45:00.492Z,986.43
2023-02-03T00:46:00.518Z,986.40
2023-02-03T00:47:00.321Z,986.40
2023-02-03T00:48:00.258Z,986.38
2023-02-03T00:49:00.152Z,986.39
2023-02-03T00:50:00.113Z,986.32
2023-02-03T00:50:59.990Z,986.31
2023-02-03T00:51:59.898Z,986.35
2023-02-03T00:52:59.820Z,986.31
2023-02-03T00:53:59.733Z,986.33
2023-02-03T00:54:59.645Z,986.33
2023-02-03T00:55:59.565Z,986.32
2023-02-03T00:56:59.481Z,986.36
2023-02-03T00:57:59.403Z,986.25
2023-02-03T00:58:59.310Z,986.37
2023-02-03T00:59:59.230Z,986.34
2023-02-03T01:00:59.162Z,986.37
2023-02-03T01:01:59.087Z,986.37
2023-02-03T01:02:58.975Z,986.37
2023-02-03T01:03:58.897Z,986.37
2023-02-03T01:04:58.834Z,986.42
2023-02-03T01:05:58.723Z,986.39
2023-02-03T01:06:58.640Z,986.37
2023-02-03T01:07:58.562Z,986.40
2023-02-03T01:08:58.469Z,986.41
2023-02-03T01:09:58.396Z,986.37
2023-02-03T01:10:58.306Z,986.42
2023-02-03T01:11:58.225Z,986.38
2023-02-03T01:12:58.133Z,986.37
2023-02-03T01:13:58.059Z,986.41
2023-02-03T01:14:57.971Z,986.37
2023-02-03T01:15:57.889Z,986.38
2023-02-03T01:16:57.850Z,986.48
2023-02-03T01:17:57.718Z,986.41
2023-02-03T01:18:57.647Z,986.40
2023-02-03T01:19:57.557Z,986.34
2023-02-03T01:20:57.472Z,986.39
2023-02-03T01:21:57.386Z,986.40
2023-02-03T01:22:57.295Z,986.31
2023-02-03T01:23:57.217Z,986.38
2023-02-03T01:24:57.131Z,986.36
2023-02-03T01:25:57.050Z,986.37
2023-02-03T01:26:56.961Z,986.32
2023-02-03T01:27:56.902Z,986.33
2023-02-03T01:28:56.805Z,986.32
2023-02-03T01:29:56.712Z,986.31
2023-02-03T01:30:56.734Z,986.26
2023-02-03T01:31:56.625Z,986.36
2023-02-03T01:32:56.460Z,986.34
2023-02-03T01:33:56.377Z,986.28
2023-02-03T01:34:56.285Z,986.31
2023-02-03T01:35:56.203Z,986.25
2023-02-03T01:36:56.132Z,986.31
2023-02-03T01:37:56.039Z,986.31
2023-02-03T01:38:55.960Z,986.28
2023-02-03T01:39:55.868Z,986.29
2023-02-03T01:40:55.782Z,986.33
2023-02-03T01:41:55.712Z,986.32
2023-02-03T01:42:55.621Z,986.28
2023-02-03T01:43:55.530Z,986.26
2023-02-03T01:44:55.448Z,986.27
2023-02-03T01:45:55.460Z,986.27
2023-02-03T01:46:55.278Z,986.24
2023-02-03T01:47:55.198Z,986.25
2023-02-03T01:48:55.110Z,986.23
2023-02-03T01:49:55.044Z,986.22
2023-02-03T01:50:54.944Z,986.18
2023-02-03T01:51:54.864Z,986.13
2023-02-03T01:52:54.777Z,986.18
2023-02-03T01:53:54.692Z,986.13
2023-02-03T01:54:54.611Z,986.19
2023-02-03T01:55:54.523Z,986.12
2023-02-03T01:56:54.445Z,986.06
2023-02-03T01:57:54.355Z,986.07
2023-02-03T01:58:54.275Z,986.09
2023-02-03T01:59:54.192Z,986.06
2023-02-03T02:00:54.112Z,986.03
2023-02-03T02:01:54.024Z,985.95
2023-02-03T02:02:53.972Z,985.99
2023-02-03T02:03:53.850Z,985.91
2023-02-03T02:04:53.776Z,985.92
2023-02-03T02:05:53.689Z,985.98
2023-02-03T02:06:53.603Z,985.94
2023-02-03T02:07:53.522Z,985.93
2023-02-03T02:08:53.435Z,985.86
2023-02-03T02:09:53.353Z,985.91
2023-02-03T02:10:53.268Z,985.84
2023-02-03T02:11:53.180Z,985.83
2023-02-03T02:12:53.098Z,985.78
2023-02-03T02:13:53.013Z,985.76
2023-02-03T02:14:52.931Z,985.84
2023-02-03T02:15:52.950Z,985.88
2023-02-03T02:16:52.765Z,985.84
2023-02-03T02:17:52.714Z,985.85
2023-02-03T02:18:52.590Z,985.88
2023-02-03T02:19:52.511Z,985.85
2023-02-03T02:20:52.426Z,985.83
2023-02-03T02:21:52.345Z,985.86
2023-02-03T02:22:52.264Z,985.82
2023-02-03T02:23:52.184Z,985.79
2023-02-03T02:24:52.098Z,985.77
2023-02-03T02:25:52.022Z,985.82
2023-02-03T02:26:51.922Z,985.76
2023-02-03T02:27:51.860Z,985.73
2023-02-03T02:28:51.757Z,985.74
2023-02-03T02:29:51.672Z,985.77
2023-02-03T02:30:51.657Z,985.79
2023-02-03T02:31:51.685Z,985.77
2023-02-03T02:32:51.419Z,985.84
2023-02-03T02:33:51.359Z,985.77
2023-02-03T02:34:51.252Z,985.76
2023-02-03T02:35:51.175Z,985.70
2023-02-03T02:36:51.084Z,985.71
2023-02-03T02:37:51.001Z,985.70
2023-02-03T02:38:50.912Z,985.76
2023-02-03T02:39:50.833Z,985.82
2023-02-03T02:40:50.758Z,985.77
2023-02-03T02:41:50.664Z,985.73
2023-02-03T02:42:50.580Z,985.64
2023-02-03T02:43:50.497Z,985.65
2023-02-03T02:44:50.414Z,985.67
2023-02-03T02:45:50.330Z,985.70
2023-02-03T02:46:50.240Z,985.73
2023-02-03T02:47:50.157Z,985.79
2023-02-03T02:48:50.074Z,985.76
2023-02-03T02:49:49.999Z,985.79
2023-02-03T02:50:49.908Z,985.79
2023-02-03T02:51:49.829Z,985.88
2023-02-03T02:52:49.739Z,985.83
2023-02-03T02:53:49.656Z,985.86
2023-02-03T02:54:49.600Z,985.85
2023-02-03T02:55:49.491Z,985.82
2023-02-03T02:56:49.408Z,985.86
2023-02-03T02:57:49.344Z,985.84
2023-02-03T02:58:49.245Z,985.86
2023-02-03T02:59:49.155Z,985.89
2023-02-03T03:00:49.080Z,985.87
2023-02-03T03:01:49.024Z,985.89
2023-02-03T03:02:48.900Z,985.90
2023-02-03T03:03:48.827Z,985.81
2023-02-03T03:04:48.786Z,985.85
2023-02-03T03:05:48.653Z,985.74
2023-02-03T03:06:48.572Z,985.74
2023-02-03T03:07:48.508Z,985.71
2023-02-03T03:08:48.406Z,985.75
2023-02-03T03:09:48.332Z,985.66
2023-02-03T03:10:48.228Z,985.66
2023-02-03T03:11:48.152Z,985.69
2023-02-03T03:12:48.070Z,985.61
2023-02-03T03:13:48.008Z,985.60
2023-02-03T03:14:47.898Z,985.60
2023-02-03T03:15:47.874Z,985.71
2023-02-03T03:16:47.725Z,985.72
2023-02-03T03:17:47.646Z,985.77
2023-02-03T03:18:47.569Z,985.79
2023-02-03T03:19:47.476Z,985.76
2023-02-03T03:20:47.394Z,985.82
2023-02-03T03:21:47.323Z,985.85
2023-02-03T03:22:47.230Z,985.81
2023-02-03T03:23:47.142Z,985.85
2023-02-03T03:24:47.061Z,985.88
2023-02-03T03:25:46.980Z,985.75
2023-02-03T03:26:46.894Z,985.90
2023-02-03T03:27:46.854Z,985.94
2023-02-03T03:28:46.728Z,985.85
2023-02-03T03:29:46.639Z,985.93
2023-02-03T03:30:46.592Z,985.91
2023-02-03T03:31:46.627Z,985.83
2023-02-03T03:32:46.394Z,985.85
2023-02-03T03:33:46.313Z,985.87
2023-02-03T03:34:46.227Z,985.91
2023-02-03T03:35:46.137Z,985.93
2023-02-03T03:36:46.059Z,985.85
2023-02-03T03:37:45.979Z,985.74
2023-02-03T03:38:45.885Z,985.82
2023-02-03T03:39:45.803Z,985.81
2023-02-03T03:40:45.717Z,985.80
2023-02-03T03:41:45.642Z,985.83
2023-02-03T03:42:45.556Z,985.88
2023-02-03T03:43:45.473Z,985.99
2023-02-03T03:44:45.388Z,986.07
2023-02-03T03:45:45.301Z,986.02
2023-02-03T03:46:45.249Z,986.09
2023-02-03T03:47:45.131Z,986.06
2023-02-03T03:48:45.052Z,986.05
2023-02-03T03:49:44.968Z,986.07
2023-02-03T03:50:44.882Z,986.04
2023-02-03T03:51:44.807Z,986.10
2023-02-03T03:52:44.720Z,986.14
2023-02-03T03:53:44.628Z,986.16
2023-02-03T03:54:44.559Z,986.23
2023-02-03T03:55:44.466Z,986.14
2023-02-03T03:56:44.394Z,986.19
2023-02-03T03:57:44.292Z,986.22
2023-02-03T03:58:44.208Z,986.17
2023-02-03T03:59:44.139Z,986.19
2023-02-03T04:00:44.047Z,986.20
2023-02-03T04:01:44.052Z,986.28
2023-02-03T04:02:43.989Z,986.10
2023-02-03T04:03:43.803Z,986.03
2023-02-03T04:04:43.707Z,986.01
2023-02-03T04:05:43.632Z,986.10
2023-02-03T04:06:43.543Z,986.00
2023-02-03T04:07:43.612Z,986.03
2023-02-03T04:08:43.371Z,985.96
2023-02-03T04:09:43.330Z,985.84
2023-02-03T04:10:43.211Z,985.89
2023-02-03T04:11:43.123Z,985.86
2023-02-03T04:12:43.043Z,985.87
2023-02-03T04:13:42.952Z,985.88
2023-02-03T04:14:42.868Z,985.85
2023-02-03T04:15:42.805Z,985.82
2023-02-03T04:16:42.709Z,985.80
2023-02-03T04:17:42.618Z,985.72
2023-02-03T04:18:42.539Z,985.80
2023-02-03T04:19:42.461Z,985.88
2023-02-03T04:20:42.368Z,985.86
2023-02-03T04:21:42.287Z,985.83
2023-02-03T04:22:42.204Z,985.84
2023-02-03T04:23:42.118Z,985.81
2023-02-03T04:24:42.037Z,985.78
2023-02-03T04:25:41.950Z,985.71
2023-02-03T04:26:41.868Z,985.78
2023-02-03T04:27:41.785Z,985.77
2023-02-03T04:28:41.701Z,985.74
2023-02-03T04:29:41.619Z,985.76
2023-02-03T04:30:41.567Z,985.69
2023-02-03T04:31:41.515Z,985.58
2023-02-03T04:32:41.375Z,985.69
2023-02-03T04:33:41.289Z,985.64
2023-02-03T04:34:41.198Z,985.68
2023-02-03T04:35:41.116Z,985.63
2023-02-03T04:36:41.039Z,985.75
2023-02-03T04:37:40.952Z,985.67
2023-02-03T04:38:40.861Z,985.75
2023-02-03T04:39:40.780Z,985.73
2023-02-03T04:40:40.695Z,985.76
2023-02-03T04:41:40.607Z,985.70
2023-02-03T04:42:40.529Z,985.68
2023-02-03T04:43:40.438Z,985.66
2023-02-03T04:44:40.370Z,985.64
2023-02-03T04:45:40.313Z,985.63
2023-02-03T04:46:40.197Z,985.57
2023-02-03T04:47:40.117Z,985.56
2023-02-03T04:48:40.026Z,985.52
2023-02-03T04:49:39.946Z,985.47
2023-02-03T04:50:39.861Z,985.57
2023-02-03T04:51:39.783Z,985.59
2023-02-03T04:52:39.689Z,985.62
2023-02-03T04:53:39.608Z,985.53
2023-02-03T04:54:39.527Z,985.52
2023-02-03T04:55:39.439Z,985.49
2023-02-03T04:56:39.360Z,985.40
2023-02-03T04:57:39.273Z,985.43
2023-02-03T04:58:39.197Z,985.40
2023-02-03T04:59:39.103Z,985.35
2023-02-03T05:00:39.033Z,985.32
2023-02-03T05:01:38.941Z,985.39
2023-02-03T05:02:38.860Z,985.39
2023-02-03T05:03:38.839Z,985.32
2023-02-03T05:04:38.686Z,985.44
2023-02-03T05:05:38.600Z,985.40
2023-02-03T05:06:38.523Z,985.41
2023-02-03T05:07:38.435Z,985.31
2023-02-03T05:08:38.358Z,985.31
2023-02-03T05:09:38.263Z,985.37
2023-02-03T05:10:38.192Z,985.36
2023-02-03T05:11:38.102Z,985.39
2023-02-03T05:12:38.020Z,985.39
2023-02-03T05:13:37.930Z,985.41
2023-02-03T05:14:37.859Z,985.38
2023-02-03T05:15:37.769Z,985.55
2023-02-03T05:16:37.748Z,985.59
2023-02-03T05:17:37.597Z,985.52
2023-02-03T05:18:37.510Z,985.60
2023-02-03T05:19:37.438Z,985.58
2023-02-03T05:20:37.348Z,985.54
2023-02-03T05:21:37.258Z,985.60
2023-02-03T05:22:37.177Z,985.47
2023-02-03T05:23:37.091Z,985.44
2023-02-03T05:24:37.015Z,985.40
2023-02-03T05:25:36.925Z,985.41
2023-02-03T05:26:36.843Z,985.58
2023-02-03T05:27:36.785Z,985.51
2023-02-03T05:28:36.674Z,985.65
2023-02-03T05:29:36.591Z,985.51
2023-02-03T05:30:36.537Z,985.53
2023-02-03T05:31:36.432Z,985.75
2023-02-03T05:32:36.343Z,985.54
2023-02-03T05:33:36.255Z,985.55
2023-02-03T05:34:36.177Z,985.79
2023-02-03T05:35:36.090Z,985.76
2023-02-03T05:36:36.008Z,985.75
2023-02-03T05:37:35.936Z,985.81
2023-02-03T05:38:35.840Z,985.75
2023-02-03T05:39:35.766Z,985.74
2023-02-03T05:40:35.669Z,985.81
2023-02-03T05:41:35.588Z,985.73
2023-02-03T05:42:35.505Z,985.70
2023-02-03T05:43:35.420Z,985.76
2023-02-03T05:44:35.340Z,985.69
2023-02-03T05:45:35.278Z,985.70
2023-02-03T05:46:35.196Z,985.67
2023-02-03T05:47:35.083Z,985.62
2023-02-03T05:48:34.999Z,985.71
2023-02-03T05:49:34.936Z,985.74
2023-02-03T05:50:36.852Z,985.67
2023-02-03T05:51:34.758Z,985.69
2023-02-03T05:52:34.674Z,985.73
2023-02-03T05:53:34.582Z,985.78
2023-02-03T05:54:34.510Z,985.76
2023-02-03T05:55:34.421Z,985.77
2023-02-03T05:56:34.337Z,985.65
2023-02-03T05:57:34.247Z,985.76
2023-02-03T05:58:34.167Z,985.74
2023-02-03T05:59:34.089Z,985.73
2023-02-03T06:00:34.001Z,985.72
2023-02-03T06:01:33.914Z,985.79
2023-02-03T06:02:33.836Z,985.77
2023-02-03T06:03:33.801Z,985.78
2023-02-03T06:04:33.715Z,985.76
2023-02-03T06:05:33.583Z,985.75
2023-02-03T06:06:33.495Z,985.70
2023-02-03T06:07:33.415Z,985.72
2023-02-03T06:08:33.345Z,985.67
2023-02-03T06:09:33.248Z,985.72
2023-02-03T06:10:33.161Z,985.65
2023-02-03T06:11:33.080Z,985.73
2023-02-03T06:12:32.996Z,985.62
2023-02-03T06:13:32.911Z,985.70
2023-02-03T06:14:32.832Z,985.79
2023-02-03T06:15:32.743Z,985.72
2023-02-03T06:16:32.695Z,985.60
2023-02-03T06:17:32.589Z,985.56
2023-02-03T06:18:32.496Z,985.49
2023-02-03T06:19:32.415Z,985.49
2023-02-03T06:20:32.328Z,985.53
2023-02-03T06:21:32.240Z,985.43
2023-02-03T06:22:32.158Z,985.48
2023-02-03T06:23:32.084Z,985.39
2023-02-03T06:24:31.994Z,985.35
2023-02-03T06:25:31.906Z,985.26
2023-02-03T06:26:31.827Z,985.21
2023-02-03T06:27:31.740Z,985.29
2023-02-03T06:28:31.653Z,985.34
2023-02-03T06:29:31.570Z,985.29
2023-02-03T06:30:31.696Z,985.29
2023-02-03T06:31:31.596Z,985.29
2023-02-03T06:32:31.327Z,985.27
2023-02-03T06:33:31.251Z,985.28
2023-02-03T06:34:31.156Z,985.37
2023-02-03T06:35:31.101Z,985.29
2023-02-03T06:36:30.990Z,985.27
2023-02-03T06:37:30.916Z,985.27
2023-02-03T06:38:30.820Z,985.28
2023-02-03T06:39:30.738Z,985.23
2023-02-03T06:40:31.062Z,985.22
2023-02-03T06:41:30.836Z,985.15
2023-02-03T06:42:30.487Z,985.13
2023-02-03T06:43:30.402Z,985.13
2023-02-03T06:44:30.326Z,985.07
2023-02-03T06:45:30.235Z,985.04
2023-02-03T06:46:30.306Z,984.89
2023-02-03T06:47:30.070Z,984.91
2023-02-03T06:48:29.983Z,984.97
2023-02-03T06:49:29.904Z,984.98
2023-02-03T06:50:30.169Z,984.98
2023-02-03T06:51:29.736Z,985.01
2023-02-03T06:52:29.654Z,984.89
2023-02-03T06:53:29.561Z,984.86
2023-02-03T06:54:29.482Z,984.95
2023-02-03T06:55:29.396Z,985.00
2023-02-03T06:56:29.325Z,985.05
2023-02-03T06:57:29.230Z,985.03
2023-02-03T06:58:29.151Z,985.00
2023-02-03T06:59:29.066Z,985.05
2023-02-03T07:00:29.307Z,985.11
2023-02-03T07:01:28.937Z,985.01
2023-02-03T07:02:28.870Z,985.02
2023-02-03T07:03:28.726Z,984.93
2023-02-03T07:04:28.641Z,984.93
2023-02-03T07:05:28.558Z,984.92
2023-02-03T07:06:28.480Z,984.90
2023-02-03T07:07:28.424Z,984.87
2023-02-03T07:08:28.319Z,984.93
2023-02-03T07:09:28.247Z,984.96
2023-02-03T07:10:28.475Z,984.96
2023-02-03T07:11:28.059Z,984.89
2023-02-03T07:12:27.980Z,985.04
2023-02-03T07:13:27.954Z,985.01
2023-02-03T07:14:27.813Z,985.08
2023-02-03T07:15:27.732Z,985.08
2023-02-03T07:16:27.718Z,985.10
2023-02-03T07:17:27.561Z,985.13
2023-02-03T07:18:48.898Z,985.13
2023-02-03T07:19:27.405Z,985.14
2023-02-03T07:20:27.579Z,985.15
2023-02-03T07:21:27.220Z,985.12
2023-02-03T07:22:27.147Z,985.12
2023-02-03T07:23:27.054Z,985.18
2023-02-03T07:24:26.974Z,985.18
2023-02-03T07:25:26.927Z,985.23
2023-02-03T07:26:26.818Z,985.21
2023-02-03T07:27:26.724Z,985.10
2023-02-03T07:28:26.639Z,985.13
2023-02-03T07:29:26.555Z,985.04
2023-02-03T07:30:26.797Z,985.13
2023-02-03T07:31:26.574Z,985.16
2023-02-03T07:32:26.317Z,985.20
2023-02-03T07:33:26.218Z,985.19
2023-02-03T07:34:26.142Z,985.16
2023-02-03T07:35:26.063Z,985.25
2023-02-03T07:36:25.972Z,985.33
2023-02-03T07:37:25.882Z,985.39
2023-02-03T07:38:25.800Z,985.53
2023-02-03T07:39:25.720Z,985.55
2023-02-03T07:40:25.911Z,985.47
2023-02-03T07:41:25.555Z,985.57
2023-02-03T07:42:25.465Z,985.64
2023-02-03T07:43:25.386Z,985.74
2023-02-03T07:44:25.314Z,985.71
2023-02-03T07:45:25.219Z,985.53
2023-02-03T07:46:25.162Z,985.58
2023-02-03T07:47:25.049Z,985.52
2023-02-03T07:48:24.959Z,985.52
2023-02-03T07:49:24.889Z,985.54
2023-02-03T07:50:24.858Z,985.54
2023-02-03T07:51:24.719Z,985.56
2023-02-03T07:52:24.625Z,985.63
2023-02-03T07:53:24.552Z,985.67
2023-02-03T07:54:24.472Z,985.74
2023-02-03T07:55:24.390Z,985.68
2023-02-03T07:56:24.298Z,985.68
2023-02-03T07:57:24.211Z,985.70
2023-02-03T07:58:24.123Z,985.65
2023-02-03T07:59:24.046Z,985.67
2023-02-03T08:00:23.963Z,985.62
2023-02-03T08:01:23.937Z,985.61
2023-02-03T08:02:23.794Z,985.59
2023-02-03T08:03:23.716Z,985.61
2023-02-03T08:04:23.625Z,985.55
2023-02-03T08:05:23.546Z,985.58
2023-02-03T08:06:23.461Z,985.63
2023-02-03T08:07:23.373Z,985.65
2023-02-03T08:08:23.291Z,985.62
2023-02-03T08:09:23.209Z,985.63
2023-02-03T08:10:23.122Z,985.59
2023-02-03T08:11:23.045Z,985.67
2023-02-03T08:12:22.954Z,985.62
2023-02-03T08:13:22.876Z,985.60
2023-02-03T08:14:22.789Z,985.57
2023-02-03T08:15:22.711Z,985.53
2023-02-03T08:16:22.769Z,985.52
2023-02-03T08:17:22.568Z,985.52
2023-02-03T08:18:22.473Z,985.50
2023-02-03T08:19:22.381Z,985.43
2023-02-03T08:20:22.291Z,985.43
2023-02-03T08:21:22.209Z,985.43
2023-02-03T08:22:22.120Z,985.40
2023-02-03T08:23:22.040Z,985.46
2023-02-03T08:24:21.960Z,985.43
2023-02-03T08:25:22.758Z,985.43
2023-02-03T08:26:21.789Z,985.49
2023-02-03T08:27:21.713Z,985.54
2023-02-03T08:28:21.754Z,985.45
2023-02-03T08:29:21.551Z,985.47
2023-02-03T08:30:21.448Z,985.42
2023-02-03T08:31:21.538Z,985.39
2023-02-03T08:32:21.423Z,985.42
2023-02-03T08:33:21.201Z,985.43
2023-02-03T08:34:21.120Z,985.40
2023-02-03T08:35:21.032Z,985.44
2023-02-03T08:36:20.962Z,985.43
2023-02-03T08:37:20.877Z,985.44
2023-02-03T08:38:20.784Z,985.52
2023-02-03T08:39:20.701Z,985.45
2023-02-03T08:40:20.614Z,985.43
2023-02-03T08:41:20.535Z,985.40
2023-02-03T08:42:20.457Z,985.38
2023-02-03T08:43:20.392Z,985.32
2023-02-03T08:44:20.295Z,985.40
2023-02-03T08:45:20.221Z,985.42
2023-02-03T08:46:20.112Z,985.43
2023-02-03T08:47:20.036Z,985.32
2023-02-03T08:48:19.952Z,985.25
2023-02-03T08:49:19.863Z,985.38
2023-02-03T08:50:19.787Z,985.32
2023-02-03T08:51:19.698Z,985.34
2023-02-03T08:52:19.626Z,985.30
2023-02-03T08:53:19.530Z,985.34
2023-02-03T08:54:19.445Z,985.29
2023-02-03T08:55:19.361Z,985.31
2023-02-03T08:56:19.275Z,985.34
2023-02-03T08:57:19.194Z,985.24
2023-02-03T08:58:19.128Z,985.23
2023-02-03T08:59:19.029Z,985.28
2023-02-03T09:00:18.943Z,985.22
2023-02-03T09:01:18.915Z,985.21
2023-02-03T09:02:18.777Z,985.32
2023-02-03T09:03:18.713Z,985.36
2023-02-03T09:04:18.613Z,985.38
2023-02-03T09:05:18.574Z,985.27
2023-02-03T09:06:19.859Z,985.38
2023-02-03T09:07:18.358Z,985.43
2023-02-03T09:08:18.277Z,985.39
2023-02-03T09:09:18.197Z,985.36
2023-02-03T09:10:18.104Z,985.34
2023-02-03T09:11:18.047Z,985.23
2023-02-03T09:12:17.949Z,985.36
2023-02-03T09:13:17.857Z,985.25
2023-02-03T09:14:17.772Z,985.26
2023-02-03T09:15:17.694Z,985.24
2023-02-03T09:16:17.690Z,985.17
2023-02-03T09:17:17.523Z,985.22
2023-02-03T09:18:17.447Z,985.17
2023-02-03T09:19:17.359Z,985.42
2023-02-03T09:20:17.351Z,985.40
2023-02-03T09:21:32.100Z,985.34
2023-02-03T09:22:17.109Z,985.39
2023-02-03T09:23:17.036Z,985.32
2023-02-03T09:24:16.940Z,985.45
2023-02-03T09:25:16.893Z,985.35
2023-02-03T09:26:16.778Z,985.43
2023-02-03T09:27:16.711Z,985.35
2023-02-03T09:28:16.675Z,985.40
2023-02-03T09:29:16.524Z,985.43
2023-02-03T09:30:16.444Z,985.26
2023-02-03T09:31:16.475Z,985.36
2023-02-03T09:32:16.269Z,985.39
2023-02-03T09:33:16.190Z,985.27
2023-02-03T09:34:16.104Z,985.38
2023-02-03T09:35:16.038Z,985.34
2023-02-03T09:36:15.947Z,985.30
2023-02-03T09:37:15.862Z,985.36
2023-02-03T09:38:15.773Z,985.33
2023-02-03T09:39:15.772Z,985.27
2023-02-03T09:40:15.613Z,985.26
2023-02-03T09:41:15.545Z,985.33
2023-02-03T09:42:15.438Z,985.24
2023-02-03T09:43:15.362Z,985.32
2023-02-03T09:44:15.286Z,985.31
2023-02-03T09:45:15.197Z,985.30
2023-02-03T09:46:15.133Z,985.08
2023-02-03T09:47:15.045Z,985.14
2023-02-03T09:48:14.943Z,985.10
2023-02-03T09:49:14.871Z,985.10
2023-02-03T09:50:14.767Z,985.27
2023-02-03T09:51:14.691Z,984.94
2023-02-03T09:52:14.627Z,985.01
2023-02-03T09:53:14.516Z,984.99
2023-02-03T09:54:14.434Z,985.02
2023-02-03T09:55:14.355Z,984.94
2023-02-03T09:56:14.269Z,985.00
2023-02-03T09:57:14.194Z,985.04
2023-02-03T09:58:14.099Z,985.15
2023-02-03T09:59:14.017Z,985.16
2023-02-03T10:00:13.944Z,985.08
2023-02-03T10:01:13.907Z,985.07
2023-02-03T10:02:13.807Z,985.20
2023-02-03T10:03:13.683Z,985.06
2023-02-03T10:04:13.621Z,985.09
2023-02-03T10:05:13.516Z,985.05
2023-02-03T10:06:13.437Z,984.99
2023-02-03T10:07:13.360Z,984.99
2023-02-03T10:08:13.297Z,984.98
2023-02-03T10:09:13.187Z,985.03
2023-02-03T10:10:13.100Z,985.07
2023-02-03T10:11:13.024Z,984.97
2023-02-03T10:12:12.937Z,985.11
2023-02-03T10:13:12.860Z,984.93
2023-02-03T10:14:12.773Z,985.02
2023-02-03T10:15:12.757Z,984.91
2023-02-03T10:16:12.596Z,985.09
2023-02-03T10:17:12.604Z,984.95
2023-02-03T10:18:12.436Z,984.99
2023-02-03T10:19:12.401Z,984.93
2023-02-03T10:20:12.272Z,984.91
2023-02-03T10:21:12.228Z,984.92
2023-02-03T10:22:12.099Z,984.81
2023-02-03T10:23:12.015Z,984.93
2023-02-03T10:24:11.954Z,984.87
2023-02-03T10:25:11.849Z,984.91
2023-02-03T10:26:11.766Z,984.70
2023-02-03T10:27:11.681Z,984.85
2023-02-03T10:28:11.686Z,984.68
2023-02-03T10:29:11.513Z,984.79
2023-02-03T10:30:11.428Z,984.66
2023-02-03T10:31:11.454Z,984.80
2023-02-03T10:32:11.428Z,984.62
2023-02-03T10:33:11.209Z,984.65
2023-02-03T10:34:11.101Z,984.68
2023-02-03T10:35:11.018Z,984.61
2023-02-03T10:36:10.931Z,984.64
2023-02-03T10:37:10.848Z,984.56
2023-02-03T10:38:10.769Z,984.55
2023-02-03T10:39:10.682Z,984.58
2023-02-03T10:40:10.611Z,984.68
2023-02-03T10:41:10.610Z,984.65
2023-02-03T10:42:10.429Z,984.57
2023-02-03T10:43:10.349Z,984.65
2023-02-03T10:44:10.267Z,984.68
2023-02-03T10:45:10.180Z,984.55
2023-02-03T10:46:10.114Z,984.56
2023-02-03T10:47:10.028Z,984.55
2023-02-03T10:48:09.935Z,984.52
2023-02-03T10:49:09.852Z,984.57
2023-02-03T10:50:09.768Z,984.29
2023-02-03T10:51:09.681Z,984.41
2023-02-03T10:52:09.599Z,984.37
2023-02-03T10:53:09.525Z,984.45
2023-02-03T10:54:09.433Z,984.15
2023-02-03T10:55:09.346Z,984.23
2023-02-03T10:56:09.291Z,984.33
2023-02-03T10:57:09.190Z,984.31
2023-02-03T10:58:09.101Z,984.35
2023-02-03T10:59:09.016Z,984.30
2023-02-03T11:00:08.932Z,984.21
2023-02-03T11:01:08.917Z,984.19
2023-02-03T11:02:08.775Z,984.22
2023-02-03T11:03:08.696Z,984.21
2023-02-03T11:04:08.669Z,984.19
2023-02-03T11:05:08.523Z,984.11
2023-02-03T11:06:08.462Z,984.22
2023-02-03T11:07:08.384Z,984.36
2023-02-03T11:08:08.635Z,984.29
2023-02-03T11:09:08.193Z,984.29
2023-02-03T11:10:08.109Z,984.44
2023-02-03T11:11:08.025Z,984.36
2023-02-03T11:12:07.937Z,984.27
2023-02-03T11:13:07.859Z,984.43
2023-02-03T11:14:07.781Z,984.25
2023-02-03T11:15:07.688Z,984.36
2023-02-03T11:16:07.739Z,984.29
2023-02-03T11:17:07.547Z,984.24
2023-02-03T11:18:07.444Z,984.24
2023-02-03T11:19:07.431Z,984.17
2023-02-03T11:20:07.277Z,984.21
2023-02-03T11:21:07.189Z,984.15
2023-02-03T11:22:07.114Z,984.14
2023-02-03T11:23:07.026Z,984.10
2023-02-03T11:24:06.940Z,984.12
2023-02-03T11:25:06.857Z,984.02
2023-02-03T11:26:06.770Z,984.00
2023-02-03T11:27:06.695Z,984.03
2023-02-03T11:28:06.709Z,983.95
2023-02-03T11:29:06.523Z,984.01
2023-02-03T11:30:06.471Z,983.95
2023-02-03T11:31:06.464Z,983.97
2023-02-03T11:32:06.428Z,983.92
2023-02-03T11:33:06.261Z,983.90
2023-02-03T11:34:06.114Z,984.19
2023-02-03T11:35:06.038Z,983.98
2023-02-03T11:36:05.946Z,983.96
2023-02-03T11:37:05.862Z,983.91
2023-02-03T11:38:05.776Z,983.87
2023-02-03T11:39:05.693Z,983.94
2023-02-03T11:40:05.607Z,983.98
2023-02-03T11:41:05.531Z,983.87
2023-02-03T11:42:05.445Z,983.96
2023-02-03T11:43:05.365Z,983.94
2023-02-03T11:44:05.281Z,983.86
2023-02-03T11:45:05.224Z,983.88
2023-02-03T11:46:05.169Z,983.77
2023-02-03T11:47:05.029Z,983.86
2023-02-03T11:48:04.943Z,983.98
2023-02-03T11:49:04.866Z,983.81
2023-02-03T11:50:04.785Z,983.82
2023-02-03T11:51:04.714Z,983.78
2023-02-03T11:52:04.613Z,983.88
2023-02-03T11:53:04.531Z,983.83
2023-02-03T11:54:04.445Z,983.72
2023-02-03T11:55:04.379Z,983.73
2023-02-03T11:56:04.278Z,983.75
2023-02-03T11:57:04.205Z,983.79
2023-02-03T11:58:04.120Z,983.76
2023-02-03T11:59:04.033Z,983.72
2023-02-03T12:00:03.959Z,983.80
2023-02-03T12:01:03.870Z,983.70
2023-02-03T12:02:03.798Z,983.78
2023-02-03T12:03:03.802Z,983.67
2023-02-03T12:04:03.694Z,983.70
2023-02-03T12:05:03.537Z,983.56
2023-02-03T12:06:03.454Z,983.83
2023-02-03T12:07:03.372Z,983.80
2023-02-03T12:08:03.315Z,983.87
2023-02-03T12:09:03.203Z,983.77
2023-02-03T12:10:03.112Z,983.79
2023-02-03T12:11:03.032Z,983.70
2023-02-03T12:12:02.948Z,983.77
2023-02-03T12:13:02.865Z,983.63
2023-02-03T12:14:02.788Z,983.70
2023-02-03T12:15:02.702Z,983.68
2023-02-03T12:16:02.666Z,983.59
2023-02-03T12:17:02.691Z,983.50
2023-02-03T12:18:02.462Z,983.49
2023-02-03T12:19:02.413Z,983.55
2023-02-03T12:20:02.313Z,983.39
2023-02-03T12:21:02.210Z,983.33
2023-02-03T12:22:02.124Z,983.36
2023-02-03T12:23:02.042Z,983.25
2023-02-03T12:24:01.961Z,983.22
2023-02-03T12:25:01.875Z,983.31
2023-02-03T12:26:01.812Z,983.16
2023-02-03T12:27:01.699Z,983.32